sensor_id;sensor_type;location;lat;lon;timestamp;pressure;altitude;pressure_sealevel;temperature;humidity
46614;BME280;32338;50.430;6.806;2023-04-01T00:01:24;66077.81;;;6.05;100.00
46614;BME280;32338;50.430;6.806;2023-04-01T00:03:51;66076.13;;;6.04;100.00
46614;BME280;32338;50.430;6.806;2023-04-01T00:06:19;66075.13;;;5.98;100.00
46614;BME280;32338;50.430;6.806;2023-04-01T00:08:45;66068.03;;;5.94;100.00
46614;BME280;32338;50.430;6.806;2023-04-01T00:11:13;66060.03;;;5.91;100.00
46614;BME280;32338;50.430;6.806;2023-04-01T00:13:40;66069.91;;;5.98;100.00
46614;BME280;32338;50.430;6.806;2023-04-01T00:16:08;66064.31;;;5.93;100.00
46614;BME280;32338;50.430;6.806;2023-04-01T00:18:35;66071.78;;;5.95;100.00
46614;BME280;32338;50.430;6.806;2023-04-01T00:21:02;66065.25;;;5.91;100.00
46614;BME280;32338;50.430;6.806;2023-04-01T00:23:29;66054.78;;;5.84;100.00
46614;BME280;32338;50.430;6.806;2023-04-01T00:25:55;66055.31;;;5.84;100.00
46614;BME280;32338;50.430;6.806;2023-04-01T00:28:22;66061.31;;;5.88;100.00
46614;BME280;32338;50.430;6.806;2023-04-01T00:30:49;66057.38;;;5.84;100.00
46614;BME280;32338;50.430;6.806;2023-04-01T00:33:17;66053.84;;;5.85;100.00
46614;BME280;32338;50.430;6.806;2023-04-01T00:35:44;66054.22;;;5.83;100.00
46614;BME280;32338;50.430;6.806;2023-04-01T00:38:11;66051.19;;;5.78;100.00
46614;BME280;32338;50.430;6.806;2023-04-01T00:40:39;66058.84;;;5.83;100.00
46614;BME280;32338;50.430;6.806;2023-04-01T00:43:10;66045.44;;;5.78;100.00
46614;BME280;32338;50.430;6.806;2023-04-01T00:45:38;66057.38;;;5.84;100.00
46614;BME280;32338;50.430;6.806;2023-04-01T00:48:07;66057.38;;;5.84;100.00
46614;BME280;32338;50.430;6.806;2023-04-01T00:50:39;66049.16;;;5.79;100.00
46614;BME280;32338;50.430;6.806;2023-04-01T00:53:07;66048.25;;;5.80;100.00
46614;BME280;32338;50.430;6.806;2023-04-01T00:55:39;66054.56;;;5.81;100.00
46614;BME280;32338;50.430;6.806;2023-04-01T00:58:10;66052.31;;;5.79;100.00
46614;BME280;32338;50.430;6.806;2023-04-01T01:00:37;66052.31;;;5.79;100.00
46614;BME280;32338;50.430;6.806;2023-04-01T01:03:04;66047.28;;;5.75;100.00
46614;BME280;32338;50.430;6.806;2023-04-01T01:05:44;66045.44;;;5.78;100.00
46614;BME280;32338;50.430;6.806;2023-04-01T01:08:21;66054.22;;;5.83;100.00
46614;BME280;32338;50.430;6.806;2023-04-01T01:10:50;66057.94;;;5.84;100.00
46614;BME280;32338;50.430;6.806;2023-04-01T01:13:19;66049.72;;;5.79;100.00
46614;BME280;32338;50.430;6.806;2023-04-01T01:15:52;66051.19;;;5.78;100.00
46614;BME280;32338;50.430;6.806;2023-04-01T01:18:26;66048.59;;;5.78;100.00
46614;BME280;32338;50.430;6.806;2023-04-01T01:24:00;66045.03;;;5.73;100.00
46614;BME280;32338;50.430;6.806;2023-04-01T01:26:50;66038.72;;;5.72;100.00
46614;BME280;32338;50.430;6.806;2023-04-01T01:29:34;66034.97;;;5.71;100.00
46614;BME280;32338;50.430;6.806;2023-04-01T01:32:14;66039.97;;;5.68;100.00
46614;BME280;32338;50.430;6.806;2023-04-01T01:34:52;66045.22;;;5.75;100.00
46614;BME280;32338;50.430;6.806;2023-04-01T01:37:25;66053.44;;;5.80;100.00
46614;BME280;32338;50.430;6.806;2023-04-01T01:39:55;66049.38;;;5.81;100.00
46614;BME280;32338;50.430;6.806;2023-04-01T01:42:24;66042.44;;;5.73;100.00
46614;BME280;32338;50.430;6.806;2023-04-01T01:44:53;66046.38;;;5.76;100.00
46614;BME280;32338;50.430;6.806;2023-04-01T01:47:22;66041.88;;;5.72;100.00
46614;BME280;32338;50.430;6.806;2023-04-01T01:49:50;66048.03;;;5.78;100.00
46614;BME280;32338;50.430;6.806;2023-04-01T01:52:17;66045.03;;;5.73;100.00
46614;BME280;32338;50.430;6.806;2023-04-01T01:54:49;66036.25;;;5.67;100.00
46614;BME280;32338;50.430;6.806;2023-04-01T01:57:18;66038.72;;;5.72;100.00
46614;BME280;32338;50.430;6.806;2023-04-01T01:59:47;66034.22;;;5.67;100.00
46614;BME280;32338;50.430;6.806;2023-04-01T02:02:15;66027.69;;;5.64;100.00
46614;BME280;32338;50.430;6.806;2023-04-01T02:04:44;66033.09;;;5.66;100.00
46614;BME280;32338;50.430;6.806;2023-04-01T02:07:15;66038.84;;;5.67;100.00
46614;BME280;32338;50.430;6.806;2023-04-01T02:09:43;66035.28;;;5.61;100.00
46614;BME280;32338;50.430;6.806;2023-04-01T02:12:13;66040.75;;;5.71;100.00
46614;BME280;32338;50.430;6.806;2023-04-01T02:14:45;66025.25;;;5.59;100.00
46614;BME280;32338;50.430;6.806;2023-04-01T02:17:14;66031.56;;;5.60;100.00
46614;BME280;32338;50.430;6.806;2023-04-01T02:19:46;66020.41;;;5.57;100.00
46614;BME280;32338;50.430;6.806;2023-04-01T02:22:16;66024.13;;;5.58;100.00
46614;BME280;32338;50.430;6.806;2023-04-01T02:24:45;66021.88;;;5.56;100.00
46614;BME280;32338;50.430;6.806;2023-04-01T02:27:13;66027.28;;;5.59;100.00
46614;BME280;32338;50.430;6.806;2023-04-01T02:29:39;66030.44;;;5.59;100.00
46614;BME280;32338;50.430;6.806;2023-04-01T02:32:08;66021.31;;;5.56;100.00
46614;BME280;32338;50.430;6.806;2023-04-01T02:34:35;66017.19;;;5.49;100.00
46614;BME280;32338;50.430;6.806;2023-04-01T02:37:02;66015.16;;;5.50;100.00
46614;BME280;32338;50.430;6.806;2023-04-01T02:39:29;66016.97;;;5.47;100.00
46614;BME280;32338;50.430;6.806;2023-04-01T02:41:56;66012.75;;;5.52;100.00
46614;BME280;32338;50.430;6.806;2023-04-01T02:44:24;66015.91;;;5.53;100.00
46614;BME280;32338;50.430;6.806;2023-04-01T02:46:51;66025.19;;;5.52;100.00
46614;BME280;32338;50.430;6.806;2023-04-01T02:49:18;66018.09;;;5.48;100.00
46614;BME280;32338;50.430;6.806;2023-04-01T02:51:44;66014.16;;;5.44;100.00
46614;BME280;32338;50.430;6.806;2023-04-01T02:54:11;66016.97;;;5.47;100.00
46614;BME280;32338;50.430;6.806;2023-04-01T02:56:38;66018.50;;;5.53;100.00
46614;BME280;32338;50.430;6.806;2023-04-01T02:59:04;66014.94;;;5.47;100.00
46614;BME280;32338;50.430;6.806;2023-04-01T03:01:32;66011.56;;;5.44;100.00
46614;BME280;32338;50.430;6.806;2023-04-01T03:03:59;66010.44;;;5.43;100.00
46614;BME280;32338;50.430;6.806;2023-04-01T03:06:26;66022.94;;;5.50;100.00
46614;BME280;32338;50.430;6.806;2023-04-01T03:08:52;66019.22;;;5.49;100.00
46614;BME280;32338;50.430;6.806;2023-04-01T03:11:19;66023.16;;;5.52;100.00
46614;BME280;32338;50.430;6.806;2023-04-01T03:13:46;66024.84;;;5.54;100.00
46614;BME280;32338;50.430;6.806;2023-04-01T03:16:14;66011.78;;;5.47;100.00
46614;BME280;32338;50.430;6.806;2023-04-01T03:18:42;66015.69;;;5.50;100.00
46614;BME280;32338;50.430;6.806;2023-04-01T03:21:13;66022.03;;;5.51;100.00
46614;BME280;32338;50.430;6.806;2023-04-01T03:23:40;66014.94;;;5.47;100.00
46614;BME280;32338;50.430;6.806;2023-04-01T03:26:07;66006.75;;;5.42;100.00
46614;BME280;32338;50.430;6.806;2023-04-01T03:28:34;66011.38;;;5.42;100.00
46614;BME280;32338;50.430;6.806;2023-04-01T03:31:00;66020.16;;;5.47;100.00
46614;BME280;32338;50.430;6.806;2023-04-01T03:33:27;66019.22;;;5.49;100.00
46614;BME280;32338;50.430;6.806;2023-04-01T03:35:55;66013.03;;;5.43;100.00
46614;BME280;32338;50.430;6.806;2023-04-01T03:38:21;66016.44;;;5.46;100.00
46614;BME280;32338;50.430;6.806;2023-04-01T03:40:48;66017.34;;;5.45;100.00
46614;BME280;32338;50.430;6.806;2023-04-01T03:43:15;66019.22;;;5.49;100.00
46614;BME280;32338;50.430;6.806;2023-04-01T03:45:43;66009.91;;;5.43;100.00
46614;BME280;32338;50.430;6.806;2023-04-01T03:48:10;66002.63;;;5.36;100.00
46614;BME280;32338;50.430;6.806;2023-04-01T03:50:37;66006.16;;;5.42;100.00
46614;BME280;32338;50.430;6.806;2023-04-01T03:53:05;66007.50;;;5.45;100.00
46614;BME280;32338;50.430;6.806;2023-04-01T03:55:31;66002.81;;;5.39;100.00
46614;BME280;32338;50.430;6.806;2023-04-01T03:57:58;66006.16;;;5.42;100.00
46614;BME280;32338;50.430;6.806;2023-04-01T04:00:27;66009.34;;;5.42;100.00
46614;BME280;32338;50.430;6.806;2023-04-01T04:02:54;66008.22;;;5.41;100.00
46614;BME280;32338;50.430;6.806;2023-04-01T04:05:21;66003.94;;;5.40;100.00
46614;BME280;32338;50.430;6.806;2023-04-01T04:07:48;66009.34;;;5.42;100.00
46614;BME280;32338;50.430;6.806;2023-04-01T04:10:16;66015.88;;;5.46;100.00
46614;BME280;32338;50.430;6.806;2023-04-01T04:12:43;66004.63;;;5.35;100.00
46614;BME280;32338;50.430;6.806;2023-04-01T04:15:10;66006.34;;;5.37;100.00
46614;BME280;32338;50.430;6.806;2023-04-01T04:17:37;66006.53;;;5.40;100.00
46614;BME280;32338;50.430;6.806;2023-04-01T04:20:05;65998.31;;;5.34;100.00
46614;BME280;32338;50.430;6.806;2023-04-01T04:22:32;66003.38;;;5.39;100.00
46614;BME280;32338;50.430;6.806;2023-04-01T04:24:58;66000.38;;;5.34;100.00
46614;BME280;32338;50.430;6.806;2023-04-01T04:27:26;66004.09;;;5.35;100.00
46614;BME280;32338;50.430;6.806;2023-04-01T04:29:53;65997.75;;;5.34;100.00
46614;BME280;32338;50.430;6.806;2023-04-01T04:32:19;66007.44;;;5.38;100.00
46614;BME280;32338;50.430;6.806;2023-04-01T04:34:46;66006.75;;;5.42;100.00
46614;BME280;32338;50.430;6.806;2023-04-01T04:37:13;66002.63;;;5.36;100.00
46614;BME280;32338;50.430;6.806;2023-04-01T04:39:39;66002.41;;;5.33;100.00
46614;BME280;32338;50.430;6.806;2023-04-01T04:42:06;66010.44;;;5.43;100.00
46614;BME280;32338;50.430;6.806;2023-04-01T04:44:34;66001.13;;;5.37;100.00
46614;BME280;32338;50.430;6.806;2023-04-01T04:47:00;66004.28;;;5.38;100.00
46614;BME280;32338;50.430;6.806;2023-04-01T04:49:27;65999.22;;;5.33;100.00
46614;BME280;32338;50.430;6.806;2023-04-01T04:51:54;65995.88;;;5.30;100.00
46614;BME280;32338;50.430;6.806;2023-04-01T04:54:20;66002.41;;;5.33;100.00
46614;BME280;32338;50.430;6.806;2023-04-01T04:56:47;65993.97;;;5.26;100.00
46614;BME280;32338;50.430;6.806;2023-04-01T04:59:13;65991.81;;;5.31;100.00
46614;BME280;32338;50.430;6.806;2023-04-01T05:01:41;65996.44;;;5.30;100.00
46614;BME280;32338;50.430;6.806;2023-04-01T05:04:08;65998.09;;;5.32;100.00
46614;BME280;32338;50.430;6.806;2023-04-01T05:06:34;65991.03;;;5.28;100.00
46614;BME280;32338;50.430;6.806;2023-04-01T05:09:01;65997.34;;;5.29;100.00
46614;BME280;32338;50.430;6.806;2023-04-01T05:11:28;65992.88;;;5.25;100.00
46614;BME280;32338;50.430;6.806;2023-04-01T05:13:54;65996.81;;;5.28;100.00
46614;BME280;32338;50.430;6.806;2023-04-01T05:16:21;66001.28;;;5.32;100.00
46614;BME280;32338;50.430;6.806;2023-04-01T05:18:49;66000.72;;;5.32;100.00
46614;BME280;32338;50.430;6.806;2023-04-01T05:21:16;65997.16;;;5.26;100.00
46614;BME280;32338;50.430;6.806;2023-04-01T05:23:43;66010.25;;;5.41;100.00
46614;BME280;32338;50.430;6.806;2023-04-01T05:26:12;66005.75;;;5.36;100.00
46614;BME280;32338;50.430;6.806;2023-04-01T05:28:39;65999.22;;;5.33;100.00
46614;BME280;32338;50.430;6.806;2023-04-01T05:31:07;66009.53;;;5.45;100.00
46614;BME280;32338;50.430;6.806;2023-04-01T05:33:34;66010.66;;;5.46;100.00
46614;BME280;32338;50.430;6.806;2023-04-01T05:36:09;66024.84;;;5.54;100.00
46614;BME280;32338;50.430;6.806;2023-04-01T05:38:36;66021.69;;;5.54;100.00
46614;BME280;32338;50.430;6.806;2023-04-01T05:41:03;66022.38;;;5.49;100.00
46614;BME280;32338;50.430;6.806;2023-04-01T05:43:30;66020.34;;;5.50;100.00
46614;BME280;32338;50.430;6.806;2023-04-01T05:45:57;66020.91;;;5.50;100.00
46614;BME280;32338;50.430;6.806;2023-04-01T05:48:24;66020.56;;;5.52;100.00
46614;BME280;32338;50.430;6.806;2023-04-01T05:50:50;66018.31;;;5.50;100.00
46614;BME280;32338;50.430;6.806;2023-04-01T05:53:19;66024.28;;;5.54;100.00
46614;BME280;32338;50.430;6.806;2023-04-01T05:55:46;66023.00;;;5.57;100.00
46614;BME280;32338;50.430;6.806;2023-04-01T05:58:12;66030.44;;;5.59;100.00
46614;BME280;32338;50.430;6.806;2023-04-01T06:00:39;66029.88;;;5.59;100.00
46614;BME280;32338;50.430;6.806;2023-04-01T06:03:06;66037.19;;;5.65;100.00
46614;BME280;32338;50.430;6.806;2023-04-01T06:05:38;66032.13;;;5.61;100.00
46614;BME280;32338;50.430;6.806;2023-04-01T06:08:10;66028.97;;;5.60;100.00
46614;BME280;32338;50.430;6.806;2023-04-01T06:10:44;66031.22;;;5.62;100.00
46614;BME280;32338;50.430;6.806;2023-04-01T06:13:21;66048.97;;;5.76;100.00
46614;BME280;32338;50.430;6.806;2023-04-01T06:15:54;66046.38;;;5.76;100.00
46614;BME280;32338;50.430;6.806;2023-04-01T06:18:45;66046.56;;;5.79;100.00
46614;BME280;32338;50.430;6.806;2023-04-01T06:21:32;66044.88;;;5.77;100.00
46614;BME280;32338;50.430;6.806;2023-04-01T06:24:14;66055.69;;;5.82;100.00
46614;BME280;32338;50.430;6.806;2023-04-01T06:26:52;66058.13;;;5.87;100.00
46614;BME280;32338;50.430;6.806;2023-04-01T06:32:40;66057.56;;;5.87;100.00
46614;BME280;32338;50.430;6.806;2023-04-01T06:35:19;66067.91;;;5.98;100.00
46614;BME280;32338;50.430;6.806;2023-04-01T06:37:50;66075.91;;;6.01;100.00
46614;BME280;32338;50.430;6.806;2023-04-01T06:40:54;66057.22;;;5.89;100.00
46614;BME280;32338;50.430;6.806;2023-04-01T06:43:34;66072.75;;;6.00;100.00
46614;BME280;32338;50.430;6.806;2023-04-01T06:46:09;66071.06;;;5.99;100.00
46614;BME280;32338;50.430;6.806;2023-04-01T06:48:48;66078.00;;;6.08;100.00
46614;BME280;32338;50.430;6.806;2023-04-01T06:51:27;66072.94;;;6.03;100.00
46614;BME280;32338;50.430;6.806;2023-04-01T06:54:03;66082.28;;;6.09;100.00
46614;BME280;32338;50.430;6.806;2023-04-01T06:56:32;66079.47;;;6.07;100.00
46614;BME280;32338;50.430;6.806;2023-04-01T06:59:03;66080.25;;;6.10;100.00
46614;BME280;32338;50.430;6.806;2023-04-01T07:01:35;66077.44;;;6.07;100.00
46614;BME280;32338;50.430;6.806;2023-04-01T07:04:06;66083.41;;;6.10;100.00
46614;BME280;32338;50.430;6.806;2023-04-01T07:06:38;66086.78;;;6.13;100.00
46614;BME280;32338;50.430;6.806;2023-04-01T07:09:09;66097.63;;;6.26;100.00
46614;BME280;32338;50.430;6.806;2023-04-01T07:11:38;66104.75;;;6.30;100.00
46614;BME280;32338;50.430;6.806;2023-04-01T07:14:14;66103.63;;;6.29;100.00
46614;BME280;32338;50.430;6.806;2023-04-01T07:16:44;66108.09;;;6.33;100.00
46614;BME280;32338;50.430;6.806;2023-04-01T07:19:18;66121.38;;;6.43;100.00
46614;BME280;32338;50.430;6.806;2023-04-01T07:21:49;66124.97;;;6.48;100.00
46614;BME280;32338;50.430;6.806;2023-04-01T07:24:21;66137.50;;;6.62;100.00
46614;BME280;32338;50.430;6.806;2023-04-01T07:26:52;66149.66;;;6.71;100.00
46614;BME280;32338;50.430;6.806;2023-04-01T07:29:21;66163.13;;;6.84;100.00
46614;BME280;32338;50.430;6.806;2023-04-01T07:34:50;66169.84;;;6.90;100.00
46614;BME280;32338;50.430;6.806;2023-04-01T07:37:26;66178.84;;;6.98;100.00
46614;BME280;32338;50.430;6.806;2023-04-01T07:40:02;66168.75;;;6.89;100.00
46614;BME280;32338;50.430;6.806;2023-04-01T07:42:38;66172.88;;;6.95;100.00
46614;BME280;32338;50.430;6.806;2023-04-01T07:45:15;66177.31;;;6.92;100.00
46614;BME280;32338;50.430;6.806;2023-04-01T07:47:57;66173.59;;;6.91;100.00
46614;BME280;32338;50.430;6.806;2023-04-01T07:50:29;66171.00;;;6.91;100.00
46614;BME280;32338;50.430;6.806;2023-04-01T07:53:07;66173.03;;;6.90;100.00
46614;BME280;32338;50.430;6.806;2023-04-01T07:55:39;66180.53;;;7.00;100.00
46614;BME280;32338;50.430;6.806;2023-04-01T07:58:14;66171.50;;;6.84;100.00
46614;BME280;32338;50.430;6.806;2023-04-01T08:00:53;66158.63;;;6.79;100.00
46614;BME280;32338;50.430;6.806;2023-04-01T08:03:33;66169.50;;;6.92;100.00
46614;BME280;32338;50.430;6.806;2023-04-01T08:06:06;66182.25;;;7.01;100.00
46614;BME280;32338;50.430;6.806;2023-04-01T08:08:44;66166.69;;;6.89;100.00
46614;BME280;32338;50.430;6.806;2023-04-01T08:11:25;66183.72;;;7.00;100.00
46614;BME280;32338;50.430;6.806;2023-04-01T08:14:03;66170.09;;;6.92;100.00
46614;BME280;32338;50.430;6.806;2023-04-01T08:16:41;66191.78;;;7.10;100.00
46614;BME280;32338;50.430;6.806;2023-04-01T08:19:21;66200.75;;;7.18;100.00
46614;BME280;32338;50.430;6.806;2023-04-01T08:21:55;66188.59;;;7.09;100.00
46614;BME280;32338;50.430;6.806;2023-04-01T08:24:29;66192.88;;;7.11;100.00
46614;BME280;32338;50.430;6.806;2023-04-01T08:27:03;66204.50;;;7.19;100.00
46614;BME280;32338;50.430;6.806;2023-04-01T08:29:36;66186.94;;;7.08;100.00
46614;BME280;32338;50.430;6.806;2023-04-01T08:32:09;66188.41;;;7.07;100.00
46614;BME280;32338;50.430;6.806;2023-04-01T08:34:38;66204.34;;;7.24;100.00
46614;BME280;32338;50.430;6.806;2023-04-01T08:37:08;66221.53;;;7.37;100.00
46614;BME280;32338;50.430;6.806;2023-04-01T08:39:39;66232.78;;;7.47;100.00
46614;BME280;32338;50.430;6.806;2023-04-01T08:48:25;66230.00;;;7.45;100.00
46614;BME280;32338;50.430;6.806;2023-04-01T08:51:13;66233.19;;;7.53;100.00
46614;BME280;32338;50.430;6.806;2023-04-01T08:54:11;66228.28;;;7.43;100.00
46614;BME280;32338;50.430;6.806;2023-04-01T08:56:52;66232.22;;;7.47;100.00
46614;BME280;32338;50.430;6.806;2023-04-01T08:59:32;66215.22;;;7.36;100.00
46614;BME280;32338;50.430;6.806;2023-04-01T09:02:25;66231.47;;;7.44;100.00
46614;BME280;32338;50.430;6.806;2023-04-01T09:05:18;66234.63;;;7.44;100.00
46614;BME280;32338;50.430;6.806;2023-04-01T09:07:56;66237.63;;;7.50;100.00
46614;BME280;32338;50.430;6.806;2023-04-01T09:10:42;66237.09;;;7.49;100.00
46614;BME280;32338;50.430;6.806;2023-04-01T09:13:47;66240.44;;;7.52;100.00
46614;BME280;32338;50.430;6.806;2023-04-01T09:16:42;66245.91;;;7.62;100.00
46614;BME280;32338;50.430;6.806;2023-04-01T09:19:19;66249.09;;;7.62;100.00
46614;BME280;32338;50.430;6.806;2023-04-01T09:22:19;66263.13;;;7.75;100.00
46614;BME280;32338;50.430;6.806;2023-04-01T09:25:22;66259.94;;;7.75;100.00
46614;BME280;32338;50.430;6.806;2023-04-01T09:27:56;66270.44;;;7.82;100.00
46614;BME280;32338;50.430;6.806;2023-04-01T09:30:33;66259.19;;;7.72;100.00
46614;BME280;32338;50.430;6.806;2023-04-01T09:36:07;66268.00;;;7.77;100.00
46614;BME280;32338;50.430;6.806;2023-04-01T09:38:54;66263.34;;;7.78;100.00
46614;BME280;32338;50.430;6.806;2023-04-01T09:41:29;66279.09;;;7.92;100.00
46614;BME280;32338;50.430;6.806;2023-04-01T09:44:03;66281.13;;;7.92;100.00
46614;BME280;32338;50.430;6.806;2023-04-01T09:46:47;66280.75;;;7.94;100.00
46614;BME280;32338;50.430;6.806;2023-04-01T09:49:38;66281.13;;;7.92;100.00
46614;BME280;32338;50.430;6.806;2023-04-01T09:52:20;66282.81;;;7.93;100.00
46614;BME280;32338;50.430;6.806;2023-04-01T09:55:17;66288.63;;;8.01;100.00
46614;BME280;32338;50.430;6.806;2023-04-01T10:01:35;66309.03;;;8.15;100.00
46614;BME280;32338;50.430;6.806;2023-04-01T10:04:40;66326.66;;;8.34;100.00
46614;BME280;32338;50.430;6.806;2023-04-01T10:10:38;66318.41;;;8.28;100.00
46614;BME280;32338;50.430;6.806;2023-04-01T10:16:43;66327.59;;;8.32;100.00
46614;BME280;32338;50.430;6.806;2023-04-01T10:19:44;66306.63;;;8.18;100.00
46614;BME280;32338;50.430;6.806;2023-04-01T10:26:09;66327.44;;;8.37;100.00
46614;BME280;32338;50.430;6.806;2023-04-01T10:29:02;66343.34;;;8.47;100.00
46614;BME280;32338;50.430;6.806;2023-04-01T10:31:58;66363.44;;;8.70;100.00
46614;BME280;32338;50.430;6.806;2023-04-01T10:35:03;66379.56;;;8.82;100.00
46614;BME280;32338;50.430;6.806;2023-04-01T10:40:57;66399.25;;;9.00;100.00
46614;BME280;32338;50.430;6.806;2023-04-01T10:49:41;66406.75;;;9.09;100.00
46614;BME280;32338;50.430;6.806;2023-04-01T10:55:53;66447.84;;;9.47;100.00
46614;BME280;32338;50.430;6.806;2023-04-01T11:02:10;66445.75;;;9.40;100.00
46614;BME280;32338;50.430;6.806;2023-04-01T11:05:07;66454.22;;;9.48;100.00
46614;BME280;32338;50.430;6.806;2023-04-01T11:08:23;66412.75;;;9.13;100.00
46614;BME280;32338;50.430;6.806;2023-04-01T11:14:28;66375.59;;;8.79;100.00
46614;BME280;32338;50.430;6.806;2023-04-01T11:20:34;66338.47;;;8.44;100.00
46614;BME280;32338;50.430;6.806;2023-04-01T11:23:17;66341.16;;;8.52;100.00
46614;BME280;32338;50.430;6.806;2023-04-01T11:26:02;66329.09;;;8.38;100.00
46614;BME280;32338;50.430;6.806;2023-04-01T11:31:58;66362.09;;;8.66;100.00
46614;BME280;32338;50.430;6.806;2023-04-01T11:34:43;66373.56;;;8.79;100.00
46614;BME280;32338;50.430;6.806;2023-04-01T11:37:28;66380.13;;;8.83;100.00
46614;BME280;32338;50.430;6.806;2023-04-01T11:40:06;66378.63;;;8.84;100.00
46614;BME280;32338;50.430;6.806;2023-04-01T11:42:42;66400.38;;;9.01;100.00
46614;BME280;32338;50.430;6.806;2023-04-01T11:45:20;66396.63;;;9.00;100.00
46614;BME280;32338;50.430;6.806;2023-04-01T11:48:24;66391.56;;;8.96;100.00
46614;BME280;32338;50.430;6.806;2023-04-01T11:51:17;66387.44;;;8.89;100.00
46614;BME280;32338;50.430;6.806;2023-04-01T11:53:52;66379.00;;;8.82;100.00
46614;BME280;32338;50.430;6.806;2023-04-01T11:56:38;66372.25;;;8.75;100.00
46614;BME280;32338;50.430;6.806;2023-04-01T11:59:29;66368.31;;;8.72;100.00
46614;BME280;32338;50.430;6.806;2023-04-01T12:02:08;66382.56;;;8.87;100.00
46614;BME280;32338;50.430;6.806;2023-04-01T12:04:58;66382.56;;;8.87;100.00
46614;BME280;32338;50.430;6.806;2023-04-01T12:07:44;66410.16;;;9.13;100.00
46614;BME280;32338;50.430;6.806;2023-04-01T12:10:18;66423.44;;;9.22;100.00
46614;BME280;32338;50.430;6.806;2023-04-01T12:12:52;66432.44;;;9.31;100.00
46614;BME280;32338;50.430;6.806;2023-04-01T12:15:31;66432.84;;;9.36;100.00
46614;BME280;32338;50.430;6.806;2023-04-01T12:18:09;66444.25;;;9.34;100.00
46614;BME280;32338;50.430;6.806;2023-04-01T12:20:45;66451.59;;;9.48;100.00
46614;BME280;32338;50.430;6.806;2023-04-01T12:23:40;66440.88;;;9.38;100.00
46614;BME280;32338;50.430;6.806;2023-04-01T12:26:33;66443.69;;;9.41;100.00
46614;BME280;32338;50.430;6.806;2023-04-01T12:29:21;66437.88;;;9.33;100.00
46614;BME280;32338;50.430;6.806;2023-04-01T12:32:00;66402.25;;;9.05;100.00
46614;BME280;32338;50.430;6.806;2023-04-01T12:34:42;66390.44;;;8.95;100.00
46614;BME280;32338;50.430;6.806;2023-04-01T12:37:16;66393.81;;;8.98;100.00
46614;BME280;32338;50.430;6.806;2023-04-01T12:39:59;66394.75;;;8.96;100.00
46614;BME280;32338;50.430;6.806;2023-04-01T12:45:29;66393.25;;;8.97;100.00
46614;BME280;32338;50.430;6.806;2023-04-01T12:48:23;66415.94;;;9.13;100.00
46614;BME280;32338;50.430;6.806;2023-04-01T12:51:32;66437.53;;;9.35;100.00
46614;BME280;32338;50.430;6.806;2023-04-01T12:57:27;66423.63;;;9.25;100.00
46614;BME280;32338;50.430;6.806;2023-04-01T13:00:11;66428.50;;;9.27;100.00
46614;BME280;32338;50.430;6.806;2023-04-01T13:02:49;66425.50;;;9.22;100.00
46614;BME280;32338;50.430;6.806;2023-04-01T13:08:31;66451.78;;;9.51;100.00
46614;BME280;32338;50.430;6.806;2023-04-01T13:11:09;66457.41;;;9.56;100.00
46614;BME280;32338;50.430;6.806;2023-04-01T13:13:59;66467.34;;;9.63;100.00
46614;BME280;32338;50.430;6.806;2023-04-01T13:16:35;66460.03;;;9.56;100.00
46614;BME280;32338;50.430;6.806;2023-04-01T13:19:08;66467.56;;;9.65;100.00
46614;BME280;32338;50.430;6.806;2023-04-01T13:21:45;66490.06;;;9.86;100.00
46614;BME280;32338;50.430;6.806;2023-04-01T13:24:26;66505.06;;;9.97;100.00
46614;BME280;32338;50.430;6.806;2023-04-01T13:26:59;66488.19;;;9.82;100.00
46614;BME280;32338;50.430;6.806;2023-04-01T13:29:32;66466.97;;;9.65;100.00
46614;BME280;32338;50.430;6.806;2023-04-01T13:32:08;66460.59;;;9.56;100.00
46614;BME280;32338;50.430;6.806;2023-04-01T13:34:51;66460.41;;;9.61;100.00
46614;BME280;32338;50.430;6.806;2023-04-01T13:37:36;66468.28;;;9.61;100.00
46614;BME280;32338;50.430;6.806;2023-04-01T13:40:22;66468.47;;;9.64;100.00
46614;BME280;32338;50.430;6.806;2023-04-01T13:42:54;66472.41;;;9.67;100.00
46614;BME280;32338;50.430;6.806;2023-04-01T13:45:26;66475.06;;;9.74;100.00
46614;BME280;32338;50.430;6.806;2023-04-01T13:54:17;66434.31;;;9.35;100.00
46614;BME280;32338;50.430;6.806;2023-04-01T13:56:59;66409.56;;;9.12;100.00
46614;BME280;32338;50.430;6.806;2023-04-01T13:59:43;66413.88;;;9.14;100.00
46614;BME280;32338;50.430;6.806;2023-04-01T14:02:33;66422.69;;;9.19;100.00
46614;BME280;32338;50.430;6.806;2023-04-01T14:05:19;66436.59;;;9.37;100.00
46614;BME280;32338;50.430;6.806;2023-04-01T14:08:02;66460.03;;;9.56;100.00
46614;BME280;32338;50.430;6.806;2023-04-01T14:10:36;66468.84;;;9.62;100.00
46614;BME280;32338;50.430;6.806;2023-04-01T14:13:12;66460.03;;;9.56;100.00
46614;BME280;32338;50.430;6.806;2023-04-01T14:15:56;66463.41;;;9.59;100.00
46614;BME280;32338;50.430;6.806;2023-04-01T14:18:50;66475.81;;;9.70;100.00
46614;BME280;32338;50.430;6.806;2023-04-01T14:21:26;66525.16;;;10.13;100.00
46614;BME280;32338;50.430;6.806;2023-04-01T14:24:07;66523.66;;;10.14;100.00
46614;BME280;32338;50.430;6.806;2023-04-01T14:29:30;66569.31;;;10.56;100.00
46614;BME280;32338;50.430;6.806;2023-04-01T14:32:06;66550.94;;;10.42;100.00
46614;BME280;32338;50.430;6.806;2023-04-01T14:34:55;66528.16;;;10.18;100.00
46614;BME280;32338;50.430;6.806;2023-04-01T14:37:39;66511.63;;;10.01;100.00
46614;BME280;32338;50.430;6.806;2023-04-01T14:40:21;66496.63;;;9.89;100.00
46614;BME280;32338;50.430;6.806;2023-04-01T14:43:01;66492.13;;;9.85;100.00
46614;BME280;32338;50.430;6.806;2023-04-01T14:48:33;66448.56;;;9.43;100.00
46614;BME280;32338;50.430;6.806;2023-04-01T14:51:13;66439.75;;;9.37;100.00
46614;BME280;32338;50.430;6.806;2023-04-01T14:53:44;66429.84;;;9.31;100.00
46614;BME280;32338;50.430;6.806;2023-04-01T14:56:35;66419.13;;;9.21;100.00
46614;BME280;32338;50.430;6.806;2023-04-01T14:59:04;66426.81;;;9.25;100.00
46614;BME280;32338;50.430;6.806;2023-04-01T15:01:39;66415.94;;;9.13;100.00